Time;durP1;ratioP1;P1;durP2;ratioP2;P2;SDS_P1;SDS_P2;PMS_P1;PMS_P2;Temp;Humidity;BMP_temperature;BMP_pressure;BME280_temperature;BME280_humidity;BME280_pressure;Samples;Min_cycle;Max_cycle;Signal;HPM_P1;HPM_P2
2022/07/29 00:02:00;;;;;;;6.20;2.53;;;16.80;51.10;;;;;;5032956;28;20391;-69
2022/07/29 00:04:26;;;;;;;9.07;2.92;;;16.80;51.50;;;;;;5033221;28;20021;-68
2022/07/29 00:06:52;;;;;;;4.32;2.33;;;16.80;51.20;;;;;;5033352;28;20387;-70
2022/07/29 00:09:17;;;;;;;6.63;2.63;;;16.80;51.20;;;;;;5033207;28;20060;-68
2022/07/29 00:11:43;;;;;;;4.47;2.22;;;16.80;51.20;;;;;;5032960;28;20395;-70
2022/07/29 00:14:09;;;;;;;6.40;3.13;;;16.80;51.50;;;;;;5032755;28;20501;-68
2022/07/29 00:16:35;;;;;;;7.15;2.30;;;16.70;51.40;;;;;;5032666;28;20047;-68
2022/07/29 00:19:00;;;;;;;5.32;2.47;;;16.80;51.60;;;;;;5031913;28;20026;-68
2022/07/29 00:21:26;;;;;;;5.68;2.83;;;16.70;51.50;;;;;;5032423;28;20033;-68
2022/07/29 00:23:52;;;;;;;4.15;2.10;;;16.60;51.80;;;;;;5032749;28;20049;-69
2022/07/29 00:26:17;;;;;;;5.43;2.38;;;16.60;51.90;;;;;;5032555;28;20455;-68
2022/07/29 00:28:43;;;;;;;6.85;2.78;;;16.50;52.40;;;;;;5031702;28;20033;-68
2022/07/29 00:31:08;;;;;;;13.30;2.53;;;16.50;52.40;;;;;;5032522;28;20079;-68
2022/07/29 00:33:34;;;;;;;5.20;2.72;;;16.40;52.70;;;;;;5032604;28;20032;-69
2022/07/29 00:36:00;;;;;;;9.82;3.15;;;16.30;53.00;;;;;;5032604;28;20480;-70
2022/07/29 00:38:25;;;;;;;4.65;2.30;;;16.30;53.40;;;;;;5034673;28;20029;-70
2022/07/29 00:40:51;;;;;;;5.68;2.30;;;16.20;53.40;;;;;;5034549;28;20494;-70
2022/07/29 00:43:17;;;;;;;5.80;2.35;;;16.10;53.80;;;;;;5032801;28;20056;-69
2022/07/29 00:45:43;;;;;;;4.95;2.45;;;16.10;54.10;;;;;;5032568;28;20021;-70
2022/07/29 00:48:09;;;;;;;5.00;2.47;;;16.00;54.40;;;;;;5031671;28;20449;-70
2022/07/29 00:50:35;;;;;;;5.25;2.55;;;15.90;54.80;;;;;;5032265;28;20021;-71
2022/07/29 00:53:02;;;;;;;5.82;2.22;;;15.90;54.70;;;;;;5014336;28;20042;-70
2022/07/29 00:55:28;;;;;;;3.88;2.05;;;15.90;54.60;;;;;;5032184;28;20029;-70
2022/07/29 00:57:55;;;;;;;5.90;2.30;;;15.80;54.60;;;;;;5031348;28;20033;-69
2022/07/29 01:00:26;;;;;;;7.20;2.80;;;15.90;54.80;;;;;;5013824;28;20029;-70
2022/07/29 01:02:51;;;;;;;5.22;2.45;;;15.90;54.90;;;;;;5031989;28;20029;-70
2022/07/29 01:05:19;;;;;;;3.13;2.15;;;15.80;55.00;;;;;;5031743;28;20113;-70
2022/07/29 01:07:46;;;;;;;10.32;2.58;;;15.80;55.00;;;;;;5031419;28;20022;-70
2022/07/29 01:10:14;;;;;;;17.00;4.00;;;15.80;55.50;;;;;;5014113;28;20112;-70
2022/07/29 01:12:41;;;;;;;10.20;2.47;;;15.70;55.90;;;;;;5032005;28;20538;-70
2022/07/29 01:15:08;;;;;;;8.82;3.10;;;15.70;55.80;;;;;;5032237;28;20437;-70
2022/07/29 01:17:50;;;;;;;6.65;2.50;;;15.60;56.00;;;;;;5032793;28;20022;-69
2022/07/29 01:20:46;;;;;;;5.05;2.90;;;15.50;56.60;;;;;;5031541;28;20562;-70
2022/07/29 01:23:28;;;;;;;6.30;2.83;;;15.40;56.80;;;;;;5031408;28;20037;-70
2022/07/29 01:26:22;;;;;;;6.72;2.22;;;15.40;57.30;;;;;;5031749;28;20029;-70
2022/07/29 01:28:54;;;;;;;5.32;2.50;;;15.40;57.40;;;;;;5031198;28;20468;-70
2022/07/29 01:31:27;;;;;;;4.78;2.58;;;15.40;57.60;;;;;;5013977;28;20491;-69
2022/07/29 01:34:00;;;;;;;16.05;3.97;;;15.40;57.50;;;;;;5030581;28;20391;-68
2022/07/29 01:36:30;;;;;;;8.13;2.75;;;15.40;57.50;;;;;;5031629;28;20025;-70
2022/07/29 01:39:13;;;;;;;7.68;2.90;;;15.40;57.60;;;;;;5031143;28;20025;-69
2022/07/29 01:41:49;;;;;;;8.88;2.70;;;15.40;57.90;;;;;;5031504;28;20045;-69
2022/07/29 01:44:24;;;;;;;4.28;2.17;;;15.30;57.90;;;;;;5031529;28;20017;-69
2022/07/29 01:46:55;;;;;;;4.75;2.60;;;15.30;58.10;;;;;;5031890;28;20028;-69
2022/07/29 01:49:29;;;;;;;5.85;2.33;;;15.40;58.30;;;;;;5030969;28;20513;-69
2022/07/29 01:52:07;;;;;;;23.25;4.40;;;15.50;58.00;;;;;;5032840;28;20045;-70
2022/07/29 01:54:42;;;;;;;8.95;3.72;;;15.40;57.90;;;;;;5031454;28;20091;-68
2022/07/29 01:57:10;;;;;;;9.18;2.80;;;15.40;58.00;;;;;;5030670;28;20025;-68
2022/07/29 01:59:37;;;;;;;10.25;2.50;;;15.40;58.10;;;;;;5031364;28;20029;-68
2022/07/29 02:02:04;;;;;;;4.63;2.40;;;15.40;58.20;;;;;;5031235;28;20256;-68
2022/07/29 02:04:33;;;;;;;7.90;3.55;;;15.30;58.10;;;;;;5031349;28;20017;-68
2022/07/29 02:07:02;;;;;;;9.30;3.38;;;15.40;58.20;;;;;;5031013;28;20027;-68
2022/07/29 02:09:29;;;;;;;11.43;3.03;;;15.40;58.00;;;;;;5030946;28;20132;-69
2022/07/29 02:11:58;;;;;;;6.95;3.20;;;15.40;57.80;;;;;;5031159;28;20040;-68
2022/07/29 02:14:25;;;;;;;6.88;2.90;;;15.40;58.00;;;;;;5031443;28;20036;-69
2022/07/29 02:16:54;;;;;;;4.38;2.20;;;15.40;58.20;;;;;;5031394;28;20114;-69
2022/07/29 02:19:22;;;;;;;7.43;2.60;;;15.40;58.40;;;;;;5030720;28;20112;-69
2022/07/29 02:21:49;;;;;;;4.38;2.70;;;15.40;58.40;;;;;;5013230;28;20032;-70
2022/07/29 02:24:17;;;;;;;3.53;2.05;;;15.50;58.30;;;;;;5031218;28;20021;-69
2022/07/29 02:26:45;;;;;;;6.15;2.53;;;15.40;58.40;;;;;;5031021;28;20079;-69
2022/07/29 02:29:12;;;;;;;5.28;2.42;;;15.50;58.40;;;;;;5030455;28;20040;-69
2022/07/29 02:31:39;;;;;;;5.82;2.97;;;15.50;58.30;;;;;;5030924;28;20025;-68
2022/07/29 02:34:08;;;;;;;7.32;3.70;;;15.50;58.30;;;;;;5031622;28;20036;-69
2022/07/29 02:36:34;;;;;;;5.47;2.92;;;15.50;58.70;;;;;;5034648;28;20025;-69
2022/07/29 02:39:03;;;;;;;9.93;3.45;;;15.40;58.70;;;;;;5034057;28;20025;-68
2022/07/29 02:41:48;;;;;;;10.98;3.25;;;15.40;58.90;;;;;;5034437;28;20040;-68
2022/07/29 02:44:16;;;;;;;5.07;2.40;;;15.40;59.00;;;;;;5016854;28;20014;-68
2022/07/29 02:46:51;;;;;;;10.43;3.65;;;15.30;59.10;;;;;;5034509;28;20013;-69
2022/07/29 02:49:48;;;;;;;5.35;3.50;;;15.30;59.00;;;;;;5033691;28;20501;-68
2022/07/29 02:52:26;;;;;;;8.80;3.22;;;15.40;58.70;;;;;;5033379;28;20075;-68
2022/07/29 02:54:57;;;;;;;6.65;3.15;;;15.40;58.80;;;;;;5034322;28;20025;-69
2022/07/29 02:57:36;;;;;;;5.18;2.60;;;15.30;58.90;;;;;;5015906;28;20167;-68
2022/07/29 03:00:06;;;;;;;5.60;2.78;;;15.30;59.20;;;;;;5034207;28;20029;-69
2022/07/29 03:02:42;;;;;;;7.28;3.20;;;15.30;59.40;;;;;;5016550;28;20029;-68
2022/07/29 03:05:10;;;;;;;19.00;8.63;;;15.40;59.30;;;;;;5034043;28;20017;-69
2022/07/29 03:07:38;;;;;;;11.52;3.92;;;15.40;59.50;;;;;;5033444;28;20164;-70
2022/07/29 03:10:06;;;;;;;8.77;4.80;;;15.40;59.50;;;;;;5016486;28;20025;-69
2022/07/29 03:12:32;;;;;;;22.42;10.45;;;15.40;59.40;;;;;;5033947;28;20025;-69
2022/07/29 03:14:59;;;;;;;48.88;20.20;;;15.50;59.40;;;;;;5034193;28;20483;-69
2022/07/29 03:17:25;;;;;;;55.15;23.95;;;15.40;59.50;;;;;;5033844;28;20029;-70
2022/07/29 03:19:51;;;;;;;45.08;17.90;;;15.50;59.50;;;;;;5033867;28;20551;-69
2022/07/29 03:22:17;;;;;;;37.08;16.40;;;15.50;59.30;;;;;;5033902;28;20021;-70
2022/07/29 03:24:42;;;;;;;40.35;15.25;;;15.50;59.30;;;;;;5033984;28;20032;-69
2022/07/29 03:27:08;;;;;;;9.13;4.13;;;15.60;59.30;;;;;;5034029;28;20025;-70
2022/07/29 03:29:34;;;;;;;8.93;3.70;;;15.60;59.10;;;;;;5016792;28;20024;-69
2022/07/29 03:32:02;;;;;;;6.93;3.58;;;15.60;59.10;;;;;;5034227;28;20033;-68
2022/07/29 03:34:27;;;;;;;7.40;3.22;;;15.60;59.20;;;;;;5032653;28;20079;-69
2022/07/29 03:36:53;;;;;;;10.00;3.40;;;15.60;59.00;;;;;;5033826;28;20034;-68
2022/07/29 03:39:24;;;;;;;6.75;3.70;;;15.60;59.40;;;;;;5032985;28;20413;-68
2022/07/29 03:41:53;;;;;;;9.35;3.78;;;15.60;59.20;;;;;;5033575;28;20450;-68
2022/07/29 03:44:21;;;;;;;5.85;3.33;;;15.70;59.40;;;;;;5033172;28;20056;-69
2022/07/29 03:46:49;;;;;;;6.82;3.55;;;15.70;59.30;;;;;;5033106;28;20109;-69
2022/07/29 03:49:16;;;;;;;5.95;2.63;;;15.70;59.20;;;;;;5032643;28;20022;-69
2022/07/29 03:51:42;;;;;;;7.15;3.63;;;15.80;58.90;;;;;;5033352;28;20102;-69
2022/07/29 03:54:08;;;;;;;7.03;4.05;;;15.90;59.00;;;;;;5033288;28;20086;-69
2022/07/29 03:56:40;;;;;;;7.05;4.93;;;15.90;59.20;;;;;;5033101;28;20033;-69
2022/07/29 03:59:07;;;;;;;12.30;5.30;;;15.70;59.10;;;;;;5015335;28;20041;-70
2022/07/29 04:01:34;;;;;;;7.28;4.80;;;15.80;59.00;;;;;;5032985;28;20112;-69
2022/07/29 04:04:01;;;;;;;11.05;5.28;;;15.70;59.10;;;;;;5033300;28;20025;-69
2022/07/29 04:06:27;;;;;;;9.30;5.30;;;15.70;59.40;;;;;;5032953;28;20025;-69
2022/07/29 04:08:52;;;;;;;11.30;5.00;;;15.70;59.40;;;;;;5032364;28;20030;-69
2022/07/29 04:11:18;;;;;;;9.73;5.00;;;15.90;58.90;;;;;;5032971;28;20104;-69
2022/07/29 04:13:44;;;;;;;9.45;5.00;;;15.90;58.50;;;;;;5033028;28;20048;-69
2022/07/29 04:16:09;;;;;;;12.32;5.65;;;15.90;58.70;;;;;;5032959;28;20030;-69
2022/07/29 04:18:35;;;;;;;11.15;6.00;;;16.00;58.50;;;;;;5032046;28;20487;-69
2022/07/29 04:21:03;;;;;;;12.77;6.38;;;16.10;58.20;;;;;;5032962;28;20033;-69
2022/07/29 04:23:32;;;;;;;10.63;6.43;;;16.20;57.70;;;;;;5015094;28;20053;-69
2022/07/29 04:25:57;;;;;;;12.43;7.30;;;16.40;57.30;;;;;;5032979;28;20101;-69
2022/07/29 04:28:23;;;;;;;11.55;6.10;;;16.50;56.80;;;;;;5032457;28;20056;-69
2022/07/29 04:30:49;;;;;;;12.35;5.75;;;16.50;57.20;;;;;;5032955;28;20061;-69
2022/07/29 04:33:14;;;;;;;9.23;6.28;;;16.60;57.50;;;;;;5043667;28;20033;-70
2022/07/29 04:35:40;;;;;;;9.93;5.82;;;16.70;57.40;;;;;;5036446;28;20028;-70
2022/07/29 04:38:07;;;;;;;16.83;7.35;;;16.90;56.90;;;;;;5036095;28;20502;-69
2022/07/29 04:40:33;;;;;;;11.32;6.75;;;17.20;55.90;;;;;;5033972;28;20032;-69
2022/07/29 04:43:00;;;;;;;13.60;5.88;;;17.50;54.70;;;;;;5034126;28;20132;-69
2022/07/29 04:45:27;;;;;;;14.10;5.90;;;17.80;53.90;;;;;;5033985;28;20029;-69
2022/07/29 04:47:52;;;;;;;14.60;7.00;;;17.80;54.20;;;;;;5043195;28;20049;-71
2022/07/29 04:50:18;;;;;;;20.65;10.43;;;18.00;53.40;;;;;;5031987;28;20051;-70
2022/07/29 04:52:43;;;;;;;18.95;11.15;;;18.20;52.90;;;;;;5049065;28;20034;-71
2022/07/29 04:55:09;;;;;;;22.98;14.70;;;18.40;52.40;;;;;;5049326;28;20026;-70
2022/07/29 04:57:35;;;;;;;29.85;15.80;;;18.50;52.20;;;;;;5030217;28;20096;-70
2022/07/29 05:00:00;;;;;;;35.08;21.60;;;18.60;52.00;;;;;;5045536;28;20029;-68
2022/07/29 05:02:26;;;;;;;34.05;21.98;;;18.90;51.20;;;;;;5034174;28;20045;-68
2022/07/29 05:04:52;;;;;;;43.75;23.98;;;;;;;;;;5033868;28;20541;-68
2022/07/29 05:07:18;;;;;;;38.08;24.83;;;;;;;;;;5014270;28;20128;-69
2022/07/29 05:09:44;;;;;;;46.05;26.25;;;20.10;48.80;;;;;;5032439;28;20104;-68
2022/07/29 05:12:09;;;;;;;46.28;28.27;;;21.00;47.00;;;;;;5032229;28;20069;-70
2022/07/29 05:14:35;;;;;;;50.05;32.58;;;21.50;45.10;;;;;;5032322;28;20060;-70
2022/07/29 05:17:01;;;;;;;59.78;36.38;;;22.00;43.80;;;;;;5031361;28;20033;-70
2022/07/29 05:19:26;;;;;;;68.78;41.90;;;21.70;43.90;;;;;;5031465;28;20022;-69
2022/07/29 05:21:52;;;;;;;61.53;37.03;;;21.90;43.40;;;;;;5013730;28;20380;-69
2022/07/29 05:24:17;;;;;;;62.25;39.90;;;22.50;42.50;;;;;;5013865;28;20021;-70
2022/07/29 05:26:43;;;;;;;69.95;40.47;;;;;;;;;;5031852;28;20070;-71
2022/07/29 05:29:11;;;;;;;73.15;44.35;;;;;;;;;;5030978;28;20067;-71
2022/07/29 05:31:36;;;;;;;69.53;45.35;;;;;;;;;;5031577;28;20390;-69
2022/07/29 05:34:02;;;;;;;74.72;46.88;;;;;;;;;;5012467;28;20017;-69
2022/07/29 05:36:28;;;;;;;93.85;56.03;;;25.00;37.90;;;;;;5031719;28;20453;-69
2022/07/29 05:38:54;;;;;;;100.55;62.45;;;25.10;37.30;;;;;;5030893;28;20024;-69
2022/07/29 05:41:20;;;;;;;99.57;66.80;;;25.00;37.50;;;;;;5031371;28;20025;-70
2022/07/29 05:43:45;;;;;;;99.68;63.13;;;;;;;;;;5013765;28;20036;-69
2022/07/29 05:46:11;;;;;;;87.28;58.08;;;;;;;;;;5014015;28;20021;-70
2022/07/29 05:48:38;;;;;;;91.18;56.88;;;;;;;;;;5030808;28;20022;-70
2022/07/29 05:51:04;;;;;;;90.88;56.15;;;23.20;40.70;;;;;;5031520;28;20028;-71
2022/07/29 05:53:30;;;;;;;90.05;55.97;;;;;;;;;;5070124;22;20068;-68
2022/07/29 05:55:56;;;;;;;85.43;53.35;;;;;;;;;;5031010;28;20475;-68
2022/07/29 05:58:23;;;;;;;80.22;50.97;;;;;;;;;;5030477;28;20033;-69
2022/07/29 06:00:49;;;;;;;79.18;51.67;;;;;;;;;;5031032;28;20117;-68
2022/07/29 06:03:15;;;;;;;90.47;53.53;;;;;;;;;;5031004;28;20304;-68
2022/07/29 06:05:41;;;;;;;81.38;52.28;;;;;;;;;;5031133;28;20030;-69
2022/07/29 06:08:07;;;;;;;93.18;58.03;;;;;;;;;;5031366;28;20151;-69
2022/07/29 06:10:35;;;;;;;98.65;62.05;;;;;;;;;;5034721;28;20052;-69
2022/07/29 06:13:01;;;;;;;99.30;64.78;;;;;;;;;;5034757;28;20045;-68
2022/07/29 06:15:27;;;;;;;100.32;63.78;;;;;;;;;;5034817;28;20374;-68
2022/07/29 06:17:53;;;;;;;100.18;64.30;;;;;;;;;;5034039;28;20039;-68
2022/07/29 06:20:19;;;;;;;98.95;65.28;;;;;;;;;;5016980;28;20029;-69
2022/07/29 06:22:45;;;;;;;113.35;65.85;;;;;;;;;;5034513;28;20026;-68
2022/07/29 06:25:11;;;;;;;113.20;68.10;;;;;;;;;;5034334;28;20463;-69
2022/07/29 06:27:37;;;;;;;101.18;61.80;;;;;;;;;;5033885;28;20472;-68
2022/07/29 06:30:06;;;;;;;103.45;64.68;;;;;;;;;;5034631;28;20399;-68
2022/07/29 06:32:32;;;;;;;87.00;53.72;;;;;;;;;;5034419;28;20101;-68
2022/07/29 06:34:58;;;;;;;91.95;58.13;;;20.80;45.70;;;;;;5032723;28;20033;-68
2022/07/29 06:37:24;;;;;;;98.95;61.42;;;;;;;;;;5033934;28;20030;-67
2022/07/29 06:40:59;;;;;;;83.30;56.25;;;;;;;;;;5034285;28;20017;-68
2022/07/29 06:42:36;;;;;;;91.53;59.42;;;21.70;44.30;;;;;;5033963;28;20064;-68
2022/07/29 06:45:01;;;;;;;92.80;58.08;;;21.80;44.20;;;;;;5034253;28;20049;-69
2022/07/29 06:47:27;;;;;;;106.10;66.15;;;22.00;44.40;;;;;;5033239;28;20017;-69
2022/07/29 06:49:52;;;;;;;96.50;61.47;;;22.00;44.30;;;;;;5034380;28;20025;-68
2022/07/29 06:52:18;;;;;;;102.28;63.90;;;22.40;43.60;;;;;;5034124;28;20108;-68
2022/07/29 06:54:47;;;;;;;103.10;66.40;;;22.80;42.60;;;;;;5034176;28;20025;-67
2022/07/29 06:57:13;;;;;;;93.93;61.92;;;22.80;42.50;;;;;;5033803;28;20412;-68
2022/07/29 06:59:39;;;;;;;90.47;60.13;;;23.00;42.50;;;;;;5034259;28;20026;-69
2022/07/29 07:02:04;;;;;;;96.88;62.20;;;23.40;42.00;;;;;;5033761;28;20036;-68
2022/07/29 07:04:30;;;;;;;100.95;63.25;;;23.40;41.50;;;;;;5034027;28;20025;-68
2022/07/29 07:06:56;;;;;;;94.25;62.13;;;22.80;42.70;;;;;;5034042;28;20018;-68
2022/07/29 07:09:21;;;;;;;98.35;62.65;;;22.40;43.40;;;;;;5032826;28;20065;-68
2022/07/29 07:11:47;;;;;;;93.65;56.25;;;22.40;43.60;;;;;;5033748;28;20028;-69
2022/07/29 07:14:12;;;;;;;85.70;54.55;;;23.20;42.20;;;;;;5033855;28;20322;-69
2022/07/29 07:16:38;;;;;;;89.05;56.88;;;24.10;40.10;;;;;;5016155;28;20029;-68
2022/07/29 07:19:04;;;;;;;80.40;52.15;;;24.60;38.90;;;;;;5033013;28;20526;-69
2022/07/29 07:21:30;;;;;;;76.75;52.17;;;25.10;38.30;;;;;;5033076;28;20037;-68
2022/07/29 07:23:55;;;;;;;83.72;54.70;;;25.80;37.20;;;;;;5015854;28;20051;-68
2022/07/29 07:26:21;;;;;;;73.75;51.90;;;25.80;37.10;;;;;;5033487;28;20023;-68
2022/07/29 07:28:46;;;;;;;75.10;48.65;;;25.50;37.30;;;;;;5032685;28;20026;-68
2022/07/29 07:31:12;;;;;;;77.57;49.33;;;25.40;37.90;;;;;;5033343;28;20036;-68
2022/07/29 07:33:38;;;;;;;70.40;44.08;;;24.60;38.50;;;;;;5033415;28;20514;-68
2022/07/29 07:36:03;;;;;;;69.18;44.40;;;24.90;38.70;;;;;;5014578;28;20169;-68
2022/07/29 07:38:29;;;;;;;66.20;42.78;;;25.20;38.30;;;;;;5032696;28;20079;-68
2022/07/29 07:40:55;;;;;;;77.72;43.05;;;25.20;38.40;;;;;;5033412;28;20109;-68
2022/07/29 07:43:21;;;;;;;54.17;35.83;;;25.40;38.00;;;;;;5033367;28;20372;-69
2022/07/29 07:45:47;;;;;;;51.38;32.88;;;26.00;37.40;;;;;;5015723;28;20022;-68
2022/07/29 07:48:12;;;;;;;54.28;34.63;;;26.90;35.30;;;;;;5032403;28;20495;-68
2022/07/29 07:50:38;;;;;;;57.97;35.97;;;27.70;34.00;;;;;;5033058;28;20053;-68
2022/07/29 07:53:04;;;;;;;59.67;36.67;;;28.50;32.50;;;;;;5032839;28;20068;-69
2022/07/29 07:55:29;;;;;;;48.97;32.95;;;28.60;32.20;;;;;;5033015;28;20049;-69
2022/07/29 07:57:56;;;;;;;52.15;34.25;;;28.20;32.80;;;;;;5032327;28;20105;-69
2022/07/29 08:00:22;;;;;;;48.17;32.78;;;28.00;32.90;;;;;;5033011;28;20113;-69
2022/07/29 08:02:48;;;;;;;45.72;31.27;;;27.80;34.00;;;;;;5032920;28;20029;-68
2022/07/29 08:05:16;;;;;;;46.47;30.20;;;28.20;33.20;;;;;;5032749;28;20026;-69
2022/07/29 08:07:44;;;;;;;51.08;29.48;;;28.00;32.60;;;;;;5014420;28;20017;-68
2022/07/29 08:10:10;;;;;;;52.38;29.63;;;27.90;33.30;;;;;;5032779;28;20017;-69
2022/07/29 08:12:35;;;;;;;48.42;30.35;;;28.20;33.30;;;;;;5015048;28;20026;-69
2022/07/29 08:15:01;;;;;;;47.95;28.05;;;28.20;33.00;;;;;;5033301;28;20029;-68
2022/07/29 08:17:27;;;;;;;49.42;26.33;;;28.10;33.10;;;;;;5031795;28;20057;-69
2022/07/29 08:19:53;;;;;;;41.63;26.20;;;28.70;32.10;;;;;;5032874;28;20483;-69
2022/07/29 08:22:19;;;;;;;42.67;26.02;;;28.10;33.20;;;;;;5032375;28;20022;-68
2022/07/29 08:24:52;;;;;;;37.88;24.13;;;27.80;33.70;;;;;;5032473;28;20029;-68
2022/07/29 08:27:18;;;;;;;38.03;24.70;;;27.40;33.80;;;;;;5031840;28;20033;-68
2022/07/29 08:29:43;;;;;;;43.17;24.38;;;27.20;35.00;;;;;;5032455;28;20025;-68
2022/07/29 08:32:09;;;;;;;38.70;21.13;;;27.00;34.90;;;;;;5032131;28;20185;-70
2022/07/29 08:34:35;;;;;;;42.80;19.65;;;26.80;35.60;;;;;;5030823;28;20029;-69
2022/07/29 08:37:00;;;;;;;31.45;17.33;;;27.10;34.80;;;;;;5031867;28;20059;-67
2022/07/29 08:39:26;;;;;;;34.13;18.42;;;27.60;34.20;;;;;;5031880;28;20022;-69
2022/07/29 08:41:52;;;;;;;36.08;18.27;;;;;;;;;;5032048;28;20022;-68
2022/07/29 08:44:19;;;;;;;29.02;17.30;;;29.00;32.50;;;;;;5031973;28;20026;-68
2022/07/29 08:46:45;;;;;;;39.08;16.27;;;;;;;;;;5013968;28;20032;-69
2022/07/29 08:49:11;;;;;;;27.48;13.68;;;;;;;;;;5031052;28;20031;-69
2022/07/29 08:51:39;;;;;;;24.02;13.23;;;;;;;;;;5031967;28;20164;-68
2022/07/29 08:54:06;;;;;;;20.65;12.73;;;;;;;;;;5031765;28;20030;-69
2022/07/29 08:56:32;;;;;;;30.30;13.77;;;;;;;;;;5032375;28;20025;-69
2022/07/29 08:58:59;;;;;;;23.42;12.20;;;31.30;28.90;;;;;;5031619;28;20029;-69
2022/07/29 09:01:29;;;;;;;19.52;11.80;;;30.20;29.90;;;;;;5031745;28;20475;-69
2022/07/29 09:03:56;;;;;;;25.45;10.60;;;29.70;31.20;;;;;;5031713;28;20103;-69
2022/07/29 09:06:27;;;;;;;21.92;11.27;;;29.20;31.70;;;;;;5031841;28;20541;-68
2022/07/29 09:08:53;;;;;;;;;;;29.20;31.50;;;;;;5031500;28;20387;-69
2022/07/29 09:11:19;;;;;;;20.70;11.07;;;29.30;31.80;;;;;;5031810;28;19905;-68
2022/07/29 09:13:45;;;;;;;25.13;11.23;;;29.50;31.40;;;;;;5031436;28;20384;-68
2022/07/29 09:16:11;;;;;;;20.63;11.32;;;;;;;;;;5031688;28;20067;-69
2022/07/29 09:18:41;;;;;;;16.40;9.40;;;;;;;;;;5030842;28;20087;-68
2022/07/29 09:24:00;;;;;;;16.90;9.38;;;;;;;;;;5031474;28;20087;-68
2022/07/29 09:26:30;;;;;;;17.50;9.70;;;;;;;;;;5031637;28;20034;-68
2022/07/29 09:28:56;;;;;;;14.80;9.87;;;;;;;;;;5030930;28;20025;-68
2022/07/29 09:31:36;;;;;;;16.05;9.25;;;;;;;;;;5031480;28;20018;-68
2022/07/29 09:34:03;;;;;;;15.85;10.50;;;;;;;;;;5030346;28;20032;-68
2022/07/29 09:36:29;;;;;;;20.70;12.90;;;29.50;31.50;;;;;;5031519;28;20616;-68
2022/07/29 09:39:01;;;;;;;21.95;12.52;;;29.10;32.80;;;;;;5030820;28;20041;-69
2022/07/29 09:41:27;;;;;;;22.90;13.73;;;30.00;32.00;;;;;;5031399;28;20030;-69
2022/07/29 09:43:57;;;;;;;28.15;16.67;;;30.40;31.30;;;;;;5033502;28;20109;-69
2022/07/29 09:46:24;;;;;;;26.17;15.70;;;;;;;;;;5035289;28;20048;-69
2022/07/29 09:49:16;;;;;;;29.88;16.23;;;31.60;29.70;;;;;;5034693;28;20014;-69
2022/07/29 09:51:42;;;;;;;28.63;16.30;;;31.70;28.90;;;;;;5031504;28;20507;-69
2022/07/29 09:54:25;;;;;;;30.05;18.10;;;31.60;28.80;;;;;;5035110;28;20040;-69
2022/07/29 09:56:52;;;;;;;30.17;17.42;;;30.70;29.90;;;;;;5035438;28;20553;-69
2022/07/29 09:59:17;;;;;;;31.85;17.63;;;30.30;30.70;;;;;;5034787;28;20029;-68
2022/07/29 10:01:43;;;;;;;30.23;17.77;;;;;;;;;;5017486;28;20025;-69
2022/07/29 10:04:09;;;;;;;29.60;17.50;;;29.00;32.20;;;;;;5035245;28;20064;-70
2022/07/29 10:06:34;;;;;;;30.35;18.00;;;28.80;33.00;;;;;;5035269;28;20117;-67
2022/07/29 10:09:10;;;;;;;29.85;17.65;;;28.90;33.00;;;;;;5034377;28;20564;-69
2022/07/29 10:11:36;;;;;;;21.30;14.93;;;29.30;32.70;;;;;;5017458;28;20037;-68
2022/07/29 10:14:03;;;;;;;26.20;14.95;;;29.60;31.70;;;;;;5035027;28;20037;-68
2022/07/29 10:16:32;;;;;;;25.48;13.90;;;30.00;31.60;;;;;;5035139;28;20025;-68
2022/07/29 10:18:59;;;;;;;22.25;13.38;;;30.70;30.20;;;;;;5034514;28;20017;-69
2022/07/29 10:21:28;;;;;;;27.17;14.73;;;31.50;28.80;;;;;;5035141;28;20033;-69
2022/07/29 10:23:53;;;;;;;26.90;12.75;;;31.30;28.80;;;;;;5034731;28;20388;-69
2022/07/29 10:26:20;;;;;;;18.88;11.80;;;30.70;29.60;;;;;;5034487;28;20025;-68
2022/07/29 10:28:46;;;;;;;16.90;11.02;;;30.40;30.10;;;;;;5033816;28;20025;-68
2022/07/29 10:31:36;;;;;;;19.58;10.75;;;30.60;30.20;;;;;;5016943;28;20033;-68
2022/07/29 10:34:20;;;;;;;20.83;9.50;;;30.70;29.40;;;;;;5032945;28;20021;-67
2022/07/29 10:37:12;;;;;;;17.55;10.52;;;30.80;29.80;;;;;;5034468;28;20030;-68
2022/07/29 10:39:51;;;;;;;20.48;10.07;;;30.40;30.10;;;;;;5016547;28;20025;-68
2022/07/29 10:42:16;;;;;;;17.30;10.48;;;29.60;30.80;;;;;;5034226;28;20483;-69
2022/07/29 10:44:43;;;;;;;14.13;6.63;;;29.60;31.10;;;;;;5034658;28;20057;-69
2022/07/29 10:47:26;;;;;;;10.00;6.28;;;29.50;30.90;;;;;;5033747;28;20022;-68
2022/07/29 10:50:03;;;;;;;13.95;7.38;;;29.80;30.60;;;;;;5034252;28;20025;-68
2022/07/29 10:52:58;;;;;;;11.98;7.75;;;30.00;30.30;;;;;;5033958;28;20025;-69
2022/07/29 10:55:39;;;;;;;7.63;4.50;;;30.50;30.60;;;;;;5015658;28;20030;-69
2022/07/29 10:58:16;;;;;;;6.82;4.25;;;30.80;29.40;;;;;;5015557;28;20021;-69
2022/07/29 11:00:41;;;;;;;10.07;4.43;;;30.50;30.10;;;;;;5034015;28;20030;-68
2022/07/29 11:03:07;;;;;;;12.95;5.30;;;30.70;29.80;;;;;;5033927;28;20037;-69
2022/07/29 11:05:56;;;;;;;8.65;4.15;;;30.70;29.40;;;;;;5016471;28;20018;-68
2022/07/29 11:08:23;;;;;;;8.23;4.25;;;30.30;30.10;;;;;;5033314;28;20060;-69
2022/07/29 11:10:51;;;;;;;6.72;2.70;;;30.30;30.40;;;;;;5033705;28;20509;-68
2022/07/29 11:13:50;;;;;;;5.28;2.45;;;29.90;30.40;;;;;;5033566;28;20029;-68
2022/07/29 11:16:16;;;;;;;5.20;2.38;;;28.90;31.50;;;;;;5016125;28;20551;-69
2022/07/29 11:19:10;;;;;;;9.93;2.42;;;28.70;32.00;;;;;;5033119;28;20159;-68
2022/07/29 11:21:36;;;;;;;8.85;2.17;;;28.70;32.20;;;;;;5033523;28;20032;-68
2022/07/29 11:24:12;;;;;;;4.60;2.17;;;28.90;32.30;;;;;;5033445;28;20036;-68
2022/07/29 11:26:38;;;;;;;9.45;2.33;;;29.00;31.80;;;;;;5033442;28;20060;-68
2022/07/29 11:29:19;;;;;;;5.32;1.80;;;29.00;31.90;;;;;;5032754;28;20483;-68
2022/07/29 11:31:49;;;;;;;4.75;2.03;;;28.90;32.20;;;;;;5033248;28;20022;-69
2022/07/29 11:34:18;;;;;;;4.78;2.45;;;28.90;32.20;;;;;;5031776;28;20030;-68
2022/07/29 11:37:14;;;;;;;3.75;2.20;;;28.70;32.30;;;;;;5033927;28;20453;-68
2022/07/29 11:39:44;;;;;;;8.68;2.35;;;28.80;32.40;;;;;;5034387;28;20091;-68
2022/07/29 11:42:24;;;;;;;8.98;2.28;;;28.90;31.90;;;;;;5034501;28;20117;-69
2022/07/29 11:44:56;;;;;;;4.28;2.15;;;28.70;32.40;;;;;;5036492;28;20456;-69
2022/07/29 11:47:23;;;;;;;4.72;2.22;;;28.90;32.20;;;;;;5034948;28;21056;-69
2022/07/29 11:49:53;;;;;;;4.07;2.05;;;28.80;32.10;;;;;;5036566;28;20025;-69
2022/07/29 11:52:20;;;;;;;7.40;2.60;;;28.40;32.50;;;;;;5051669;22;20053;-73
2022/07/29 11:54:48;;;;;;;2.58;2.20;;;28.30;32.80;;;;;;5032651;28;20401;-69
2022/07/29 11:57:16;;;;;;;6.05;2.75;;;28.40;33.00;;;;;;5032454;28;20518;-70
2022/07/29 11:59:45;;;;;;;6.13;2.30;;;28.60;33.10;;;;;;5032932;28;20013;-70
2022/07/29 12:02:12;;;;;;;8.60;2.78;;;28.60;32.90;;;;;;5032658;28;20030;-70
2022/07/29 12:04:51;;;;;;;7.15;2.30;;;28.60;33.00;;;;;;5032910;28;20475;-67
2022/07/29 12:07:17;;;;;;;5.30;2.45;;;28.90;32.80;;;;;;5031562;28;20025;-69
2022/07/29 12:09:53;;;;;;;5.03;2.20;;;28.90;32.10;;;;;;5032734;28;20037;-69
2022/07/29 12:12:20;;;;;;;10.75;2.55;;;28.90;32.10;;;;;;5032606;28;20511;-70
2022/07/29 12:14:46;;;;;;;4.32;2.83;;;29.10;32.30;;;;;;5032661;28;20034;-69
2022/07/29 12:17:31;;;;;;;3.67;2.10;;;29.20;32.70;;;;;;5031752;28;20412;-69
2022/07/29 12:19:59;;;;;;;6.30;2.30;;;29.50;32.00;;;;;;5032556;28;20491;-70
2022/07/29 12:22:34;;;;;;;5.13;2.25;;;29.60;31.80;;;;;;5032446;28;20029;-70
2022/07/29 12:25:09;;;;;;;3.00;2.20;;;;;;;;;;5014794;28;20026;-69
2022/07/29 12:27:35;;;;;;;9.85;2.95;;;;;;;;;;5031549;28;20025;-69
2022/07/29 12:30:05;;;;;;;4.43;2.35;;;;;;;;;;5014508;28;20395;-70
2022/07/29 12:32:33;;;;;;;3.35;1.85;;;;;;;;;;5032270;28;20030;-70
2022/07/29 12:35:02;;;;;;;5.47;2.67;;;;;;;;;;5013400;28;20025;-70
2022/07/29 12:37:28;;;;;;;5.38;2.38;;;;;;;;;;5031257;28;20025;-70
2022/07/29 12:39:54;;;;;;;5.10;2.30;;;;;;;;;;5031944;28;20037;-69
2022/07/29 12:42:20;;;;;;;3.55;2.63;;;;;;;;;;5031829;28;20491;-68
2022/07/29 12:44:50;;;;;;;10.77;2.92;;;;;;;;;;5031998;28;20029;-69
2022/07/29 12:47:17;;;;;;;9.68;2.45;;;;;;;;;;5031274;28;20029;-70
2022/07/29 12:49:44;;;;;;;7.10;2.28;;;;;;;;;;5032001;28;20024;-70
2022/07/29 12:52:28;;;;;;;3.55;2.13;;;;;;;;;;5031827;28;20439;-69
2022/07/29 12:54:54;;;;;;;3.22;2.10;;;;;;;;;;5031454;28;20396;-69
2022/07/29 12:57:20;;;;;;;4.00;2.53;;;;;;;;;;5031064;28;20039;-69
2022/07/29 12:59:59;;;;;;;4.38;2.53;;;;;;;;;;5032078;28;20025;-70
2022/07/29 13:02:25;;;;;;;7.80;2.65;;;;;;;;;;5031541;28;20033;-71
2022/07/29 13:04:58;;;;;;;6.50;2.70;;;;;;;;;;5031852;28;20018;-72
2022/07/29 13:07:26;;;;;;;7.63;2.50;;;;;;;;;;5030847;28;20033;-71